Providence, Rhode Island
Traffic Map
Current Weather Conditions
Providence, Rhode Island
Overcast Light Rain
Overcast

Feels Like: 3°
Wind Chill: Ceiling: 10000
Heat Index: Visibility: 10mi
Dew Point: -3° Wind: 9mph
Humidity: 53% Direction: 200° (SSW)
Pressure: 30.13in Gusts: 0mph
Raw Report DataKPVD 231051Z 20008KT 10SM -RA BKN100 OVC110 06/M03 A3013 RMK AO2 RAB47 SLP204 FIRST AUGMENTED P0000 T00611028
Traffic Incident Summary
Active as of:
Severity:
Category:
InformationThere was an issue retrieving the traffic information for this location. Please try a different location or try again shortly.
Advertisements
Track Severe Weather on mobile